Time;durP1;ratioP1;P1;durP2;ratioP2;P2;SDS_P1;SDS_P2;PMS_P1;PMS_P2;Temp;Humidity;BMP_temperature;BMP_pressure;BME280_temperature;BME280_humidity;BME280_pressure;Samples;Min_cycle;Max_cycle;Signal;HPM_P1;HPM_P2
2022/06/14 00:02:12;;;;;;;6.97;3.35;;;;;;;12.26;76.33;96601.53;2009851;29;20045;-59
2022/06/14 00:03:13;;;;;;;7.75;3.30;;;;;;;12.24;76.68;96600.75;2009630;29;20053;-59
2022/06/14 00:04:14;;;;;;;5.13;3.33;;;;;;;12.24;77.07;96601.63;2003292;29;20057;-58
2022/06/14 00:05:16;;;;;;;6.38;3.28;;;;;;;12.21;77.50;96601.72;2002629;29;20046;-60
2022/06/14 00:06:18;;;;;;;7.38;3.50;;;;;;;12.21;76.83;96604.31;2010004;29;20057;-58
2022/06/14 00:07:19;;;;;;;9.43;3.72;;;;;;;12.18;77.43;96598.41;2009531;29;20054;-59
2022/06/14 00:08:21;;;;;;;6.57;3.35;;;;;;;12.18;77.30;96607.06;2009754;29;20064;-59
2022/06/14 00:09:22;;;;;;;6.70;3.13;;;;;;;12.19;77.05;96605.31;2002537;29;20057;-59
2022/06/14 00:10:23;;;;;;;6.32;3.20;;;;;;;12.14;76.78;96601.16;2002875;29;20058;-58
2022/06/14 00:11:28;;;;;;;7.32;3.28;;;;;;;12.13;77.26;96601.22;2010109;29;20414;-58
2022/06/14 00:12:29;;;;;;;5.57;3.53;;;;;;;12.09;76.99;96605.72;1995307;29;20046;-59
2022/06/14 00:13:30;;;;;;;5.05;3.03;;;;;;;12.09;76.72;96605.72;1994670;29;20339;-58
2022/06/14 00:14:31;;;;;;;9.50;3.85;;;;;;;12.10;76.84;96602.19;2010276;29;20053;-55
2022/06/14 00:15:33;;;;;;;6.50;3.60;;;;;;;12.11;76.58;96605.66;2009979;29;20053;-59
2022/06/14 00:16:34;;;;;;;7.53;3.25;;;;;;;12.10;77.20;96602.19;2009914;29;20062;-58
2022/06/14 00:17:36;;;;;;;4.85;3.05;;;;;;;12.09;76.67;96600.53;2010388;29;20052;-59
2022/06/14 00:18:37;;;;;;;6.65;3.55;;;;;;;12.13;76.95;96598.63;2009709;29;20114;-58
2022/06/14 00:19:38;;;;;;;7.25;3.65;;;;;;;12.09;76.98;96603.13;2002239;29;20533;-58
2022/06/14 00:20:40;;;;;;;7.00;3.35;;;;;;;12.10;76.93;96602.19;2010283;29;20062;-58
2022/06/14 00:21:41;;;;;;;6.90;3.10;;;;;;;12.10;76.60;96601.34;1995140;29;20046;-58
2022/06/14 00:22:42;;;;;;;8.05;3.25;;;;;;;12.09;76.60;96604.88;1995484;29;20042;-59
2022/06/14 00:23:44;;;;;;;7.05;3.10;;;;;;;12.09;76.50;96603.13;2002103;29;20050;-58
2022/06/14 00:24:45;;;;;;;7.10;3.55;;;;;;;12.07;76.38;96601.50;2009735;29;20053;-58
2022/06/14 00:25:47;;;;;;;7.60;3.30;;;;;;;12.05;76.41;96600.72;2009803;29;20522;-58
2022/06/14 00:26:49;;;;;;;11.40;4.20;;;;;;;12.04;76.90;96599.03;2009996;29;20060;-57
2022/06/14 00:27:51;;;;;;;6.35;3.70;;;;;;;12.03;76.58;96608.59;2009748;29;20505;-59
2022/06/14 00:28:52;;;;;;;8.57;3.90;;;;;;;12.02;76.64;96604.28;2002165;29;20069;-59
2022/06/14 00:29:53;;;;;;;6.60;3.25;;;;;;;11.98;76.58;96604.50;2009563;29;20431;-59
2022/06/14 00:30:58;;;;;;;8.00;3.42;;;;;;;11.98;77.02;96604.50;2010071;29;20052;-58
2022/06/14 00:32:00;;;;;;;6.32;3.05;;;;;;;11.98;76.48;96597.53;2009928;29;20060;-57
2022/06/14 00:33:01;;;;;;;6.65;3.05;;;;;;;11.97;76.12;96606.25;2002263;29;20064;-58
2022/06/14 00:34:02;;;;;;;7.03;3.30;;;;;;;11.95;76.79;96602.00;2002315;29;20070;-58
2022/06/14 00:35:03;;;;;;;5.60;3.22;;;;;;;11.93;76.20;96598.66;2002851;29;20077;-57
2022/06/14 00:36:09;;;;;;;12.82;3.60;;;;;;;11.93;75.65;96603.84;2002159;29;20054;-58
2022/06/14 00:37:13;;;;;;;8.23;3.83;;;;;;;11.91;76.32;96604.75;2002573;29;20050;-58
2022/06/14 00:38:15;;;;;;;6.97;3.53;;;;;;;11.88;76.05;96612.69;2009561;29;20057;-58
2022/06/14 00:39:16;;;;;;;9.32;3.95;;;;;;;11.87;75.90;96599.75;2010053;29;20122;-56
2022/06/14 00:40:24;;;;;;;7.13;3.55;;;;;;;11.85;76.01;96606.75;2002068;29;20054;-58
2022/06/14 00:41:38;;;;;;;7.15;3.92;;;;;;;11.83;76.08;96606.81;2010159;29;20073;-58
2022/06/14 00:42:39;;;;;;;5.80;3.50;;;;;;;11.80;75.92;96601.72;2010918;29;20114;-58
2022/06/14 00:43:40;;;;;;;10.07;3.88;;;;;;;11.79;76.40;96607.03;2017420;29;20414;-57
2022/06/14 00:44:41;;;;;;;6.32;3.20;;;;;;;11.79;76.45;96604.41;2010238;29;20053;-58
2022/06/14 00:45:42;;;;;;;15.68;3.92;;;;;;;11.76;76.40;96604.53;2002905;29;20072;-58
2022/06/14 00:47:04;;;;;;;5.32;3.45;;;;;;;11.74;76.08;96599.41;2002448;29;20667;-58
2022/06/14 00:48:09;;;;;;;6.03;3.35;;;;;;;11.72;76.57;96598.63;2009970;29;20073;-58
2022/06/14 00:49:15;;;;;;;7.65;3.63;;;;;;;11.69;76.17;96601.34;2009785;29;20049;-59
2022/06/14 00:50:23;;;;;;;8.70;4.00;;;;;;;11.69;76.78;96596.97;2002292;29;20057;-58
2022/06/14 00:51:24;;;;;;;7.40;3.53;;;;;;;11.66;76.14;96602.31;2003386;29;20537;-58
2022/06/14 00:52:48;;;;;;;7.45;3.65;;;;;;;11.65;76.76;96602.38;2009504;29;20041;-58
2022/06/14 00:54:01;;;;;;;5.85;3.40;;;;;;;11.61;77.01;96593.84;2002713;29;20062;-58
2022/06/14 00:55:24;;;;;;;10.55;4.00;;;;;;;11.61;76.55;96598.22;2002457;29;20089;-58
2022/06/14 00:56:30;;;;;;;6.63;3.80;;;;;;;11.61;77.01;96596.47;2001484;29;20049;-57
2022/06/14 00:57:34;;;;;;;8.60;3.75;;;;;;;11.60;77.01;96597.38;2002528;29;20054;-56
2022/06/14 00:58:40;;;;;;;11.40;4.22;;;;;;;11.52;77.20;96578.66;2001931;29;20438;-58
2022/06/14 00:59:44;;;;;;;6.05;3.63;;;;;;;11.59;76.67;96593.06;2005333;29;20060;-58
2022/06/14 01:00:51;;;;;;;10.23;3.67;;;;;;;11.59;76.90;96600.88;2010105;29;20052;-59
2022/06/14 01:02:00;;;;;;;7.22;3.67;;;;;;;11.55;76.91;96604.53;2002789;29;20560;-59
2022/06/14 01:03:07;;;;;;;7.20;3.95;;;;;;;11.53;77.49;96600.28;1994914;29;20046;-58
2022/06/14 01:04:13;;;;;;;6.78;3.53;;;;;;;11.44;76.92;96583.28;1997493;29;20518;-60
2022/06/14 01:05:19;;;;;;;7.65;3.65;;;;;;;11.50;77.10;96593.47;2001511;29;20053;-59
2022/06/14 01:07:36;;;;;;;12.65;3.97;;;;;;;11.48;77.10;96597.88;1996557;29;20042;-57
2022/06/14 01:08:40;;;;;;;9.13;4.00;;;;;;;11.44;76.65;96594.56;2010407;29;20606;-57
2022/06/14 01:09:48;;;;;;;8.10;4.20;;;;;;;11.41;77.09;96592.09;2009237;29;20057;-58
2022/06/14 01:10:49;;;;;;;10.90;3.83;;;;;;;11.40;77.39;96599.94;2003314;29;20053;-58
2022/06/14 01:11:57;;;;;;;8.15;3.53;;;;;;;11.35;77.65;96601.88;2009703;29;20037;-58
2022/06/14 01:13:00;;;;;;;7.88;4.03;;;;;;;11.31;77.57;96601.19;2009424;29;20056;-59
2022/06/14 01:14:02;;;;;;;10.52;3.88;;;;;;;11.30;78.14;96604.66;2002494;29;20042;-58
2022/06/14 01:15:14;;;;;;;5.32;3.45;;;;;;;11.32;77.86;96607.22;2001956;29;20058;-59
2022/06/14 01:16:15;;;;;;;8.25;4.00;;;;;;;11.29;78.21;96604.75;2003682;29;20057;-59
2022/06/14 01:17:17;;;;;;;6.28;3.95;;;;;;;11.28;77.56;96596.09;2009993;29;20057;-58
2022/06/14 01:18:18;;;;;;;8.00;3.78;;;;;;;11.26;77.79;96597.91;2017086;29;20049;-59
2022/06/14 01:19:22;;;;;;;6.90;4.25;;;;;;;11.24;77.66;96599.72;2009651;29;20065;-58
2022/06/14 01:20:23;;;;;;;9.82;4.30;;;;;;;11.20;77.94;96601.59;1995135;29;20530;-58
2022/06/14 01:21:25;;;;;;;13.63;4.78;;;;;;;11.17;77.89;96599.13;2002125;29;20054;-58
2022/06/14 01:22:28;;;;;;;10.57;4.00;;;;;;;11.14;77.79;96585.41;2009313;29;20433;-58
2022/06/14 01:23:29;;;;;;;9.25;4.13;;;;;;;11.09;78.01;96590.75;2009533;29;20057;-58
2022/06/14 01:24:31;;;;;;;7.47;3.90;;;;;;;11.07;78.39;96586.56;2001781;29;20048;-58
2022/06/14 01:25:39;;;;;;;7.95;3.85;;;;;;;11.06;77.89;96585.69;1994432;29;20073;-55
2022/06/14 01:26:41;;;;;;;8.85;3.95;;;;;;;11.06;78.19;96585.69;2003105;29;20050;-59
2022/06/14 01:27:42;;;;;;;7.35;4.32;;;;;;;11.05;78.35;96589.22;2002018;29;20049;-58
2022/06/14 01:28:53;;;;;;;12.55;4.28;;;;;;;11.01;78.85;96583.31;1987217;29;20050;-59
2022/06/14 01:29:59;;;;;;;6.90;3.40;;;;;;;11.00;78.28;96586.78;2010878;29;20053;-59
2022/06/14 01:31:00;;;;;;;11.35;4.30;;;;;;;10.97;78.43;96581.72;2001792;29;20061;-58
2022/06/14 01:32:04;;;;;;;9.15;4.47;;;;;;;10.96;79.36;96584.34;1994588;29;20050;-58
2022/06/14 01:33:08;;;;;;;7.35;4.45;;;;;;;10.95;78.67;96582.69;1995194;29;20050;-60
2022/06/14 01:34:09;;;;;;;7.35;3.97;;;;;;;10.92;78.74;96580.22;2010143;29;20049;-58
2022/06/14 01:35:13;;;;;;;9.77;4.70;;;;;;;10.90;78.33;96584.59;2009073;29;20049;-59
2022/06/14 01:36:20;;;;;;;6.50;4.22;;;;;;;10.89;78.93;96578.56;2009067;29;20643;-59
2022/06/14 01:37:21;;;;;;;7.43;4.25;;;;;;;10.89;78.94;96585.53;2010328;29;20056;-58
2022/06/14 01:38:23;;;;;;;10.93;4.70;;;;;;;10.84;78.85;96584.84;2001341;29;20561;-57
2022/06/14 01:39:24;;;;;;;9.85;4.63;;;;;;;10.81;79.95;96580.63;2002486;29;20057;-58
2022/06/14 01:40:32;;;;;;;9.48;4.75;;;;;;;10.80;79.70;96579.78;2009176;29;20060;-59
2022/06/14 01:41:35;;;;;;;9.55;4.30;;;;;;;10.78;80.14;96588.53;2002423;29;20050;-58
2022/06/14 01:43:01;;;;;;;7.88;4.45;;;;;;;10.75;80.03;96583.47;2002064;29;20038;-58
2022/06/14 01:44:09;;;;;;;9.23;4.55;;;;;;;10.73;80.62;96585.28;2009487;29;20502;-58
2022/06/14 01:45:27;;;;;;;10.18;4.10;;;;;;;10.70;81.24;96588.84;2010350;29;20129;-59
2022/06/14 01:46:30;;;;;;;9.57;4.50;;;;;;;10.63;81.56;96587.38;2001580;29;20050;-59
2022/06/14 01:47:33;;;;;;;7.35;4.40;;;;;;;10.66;81.50;96589.00;2002059;29;20069;-56
2022/06/14 01:51:50;;;;;;;8.20;4.57;;;;;;;10.63;82.41;96581.31;2016685;29;20037;-59
2022/06/14 01:52:26;;;;;;;7.50;4.72;;;;;;;10.53;82.19;96580.81;2015463;29;20524;-59
2022/06/14 01:53:41;;;;;;;9.27;4.70;;;;;;;10.49;81.64;96581.84;2009261;29;20048;-58
2022/06/14 01:55:08;;;;;;;9.70;4.13;;;;;;;10.45;82.69;96578.53;2001880;29;20121;-59
2022/06/14 01:56:32;;;;;;;10.90;4.72;;;;;;;10.46;83.04;96581.97;2005243;29;20549;-59
2022/06/14 01:58:06;;;;;;;8.85;4.35;;;;;;;10.43;82.73;96585.53;2008897;29;20052;-58
2022/06/14 01:59:43;;;;;;;8.52;4.55;;;;;;;10.36;82.65;96582.31;2009556;29;20053;-59
2022/06/14 02:00:56;;;;;;;5.82;3.80;;;;;;;10.33;82.95;96585.00;2004837;29;20053;-58
2022/06/14 02:02:00;;;;;;;8.73;4.88;;;;;;;10.31;83.24;96586.81;2010627;29;20053;-58
2022/06/14 02:04:53;;;;;;;8.52;4.70;;;;;;;10.30;83.91;96579.09;2016675;29;20049;-57
2022/06/14 02:06:05;;;;;;;8.90;4.97;;;;;;;10.31;83.59;96593.75;2008027;29;20049;-59
2022/06/14 02:07:24;;;;;;;10.25;4.90;;;;;;;10.29;83.53;96591.25;2017166;29;20052;-58
2022/06/14 02:08:25;;;;;;;8.60;4.68;;;;;;;10.25;83.73;96581.81;2011953;29;20060;-58
2022/06/14 02:09:49;;;;;;;9.65;4.13;;;;;;;10.25;83.44;96579.22;2015586;29;20520;-57
2022/06/14 02:11:14;;;;;;;10.48;4.45;;;;;;;10.26;83.73;96587.84;2011569;29;20042;-59
2022/06/14 02:12:20;;;;;;;12.95;4.78;;;;;;;10.23;84.23;96586.22;2012400;29;20577;-59
2022/06/14 02:13:30;;;;;;;7.93;4.45;;;;;;;10.23;83.87;96582.78;2009294;29;20046;-59
2022/06/14 02:14:38;;;;;;;11.77;4.63;;;;;;;10.20;84.30;96578.53;2009382;29;20409;-57
2022/06/14 02:15:45;;;;;;;10.43;4.75;;;;;;;10.23;84.16;96581.03;2009182;29;20441;-57
2022/06/14 02:16:52;;;;;;;8.57;4.60;;;;;;;10.22;84.41;96581.94;1992849;29;20047;-58
2022/06/14 02:17:57;;;;;;;6.65;4.45;;;;;;;10.29;84.01;96578.25;1996826;29;20053;-60
2022/06/14 02:19:03;;;;;;;7.22;4.38;;;;;;;10.30;84.11;96579.09;2000933;29;20135;-59
2022/06/14 02:20:09;;;;;;;10.05;4.68;;;;;;;10.29;83.54;96588.66;1996038;29;20061;-58
2022/06/14 02:21:13;;;;;;;8.85;4.32;;;;;;;10.28;83.38;96580.91;2001987;29;20054;-58
2022/06/14 02:22:21;;;;;;;9.38;4.90;;;;;;;10.29;84.17;96582.56;2002510;29;20593;-58
2022/06/14 02:23:22;;;;;;;9.52;4.93;;;;;;;10.28;83.81;96579.16;2015777;29;20049;-59
2022/06/14 02:24:25;;;;;;;11.25;4.65;;;;;;;10.28;83.28;96573.94;1994026;29;20054;-58
2022/06/14 02:25:32;;;;;;;7.82;4.40;;;;;;;10.27;83.70;96574.88;2002416;29;20056;-59
2022/06/14 02:26:36;;;;;;;9.88;4.72;;;;;;;10.23;83.63;96575.84;2000661;29;20061;-59
2022/06/14 02:28:00;;;;;;;11.05;5.03;;;;;;;10.21;83.04;96580.25;2003039;29;20046;-57
2022/06/14 02:29:29;;;;;;;9.45;4.88;;;;;;;10.18;83.03;96579.50;2018342;29;20050;-57
2022/06/14 02:30:40;;;;;;;10.93;4.72;;;;;;;10.16;83.39;96582.16;2011116;29;20041;-59
2022/06/14 02:31:55;;;;;;;10.75;4.28;;;;;;;10.13;83.05;96577.94;2015837;29;20045;-59
2022/06/14 02:33:01;;;;;;;9.93;4.85;;;;;;;10.11;83.49;96579.72;2007351;29;20056;-58
2022/06/14 02:34:06;;;;;;;7.57;4.57;;;;;;;10.09;83.91;96581.53;2014939;29;20045;-58
2022/06/14 02:35:13;;;;;;;10.05;4.45;;;;;;;10.10;83.68;96577.19;2016012;29;20521;-59
2022/06/14 02:36:23;;;;;;;9.27;4.20;;;;;;;10.07;83.56;96574.69;2023884;29;20056;-58
2022/06/14 02:37:29;;;;;;;9.25;4.30;;;;;;;10.08;84.08;96579.84;2014161;29;20521;-59
2022/06/14 02:38:33;;;;;;;11.80;4.88;;;;;;;10.06;84.52;96576.44;2002435;29;20049;-58
2022/06/14 02:39:38;;;;;;;8.75;4.50;;;;;;;10.06;83.68;96578.22;2016782;29;20045;-58
2022/06/14 02:40:42;;;;;;;8.95;4.20;;;;;;;10.04;83.88;96578.25;2023955;29;20040;-59
2022/06/14 02:41:49;;;;;;;8.63;5.00;;;;;;;10.04;84.21;96582.59;2023815;29;20040;-59
2022/06/14 02:42:56;;;;;;;6.78;4.80;;;;;;;10.03;84.38;96580.91;2016200;29;20053;-58
2022/06/14 02:44:19;;;;;;;8.23;4.45;;;;;;;10.03;84.50;96583.50;2008400;29;20072;-58
2022/06/14 02:45:32;;;;;;;8.10;4.53;;;;;;;10.00;84.10;96576.69;2009735;29;20064;-58
2022/06/14 02:46:38;;;;;;;7.68;4.40;;;;;;;9.97;84.75;96575.91;2009254;29;20052;-59
2022/06/14 02:47:44;;;;;;;9.35;5.32;;;;;;;9.96;85.04;96574.25;2017111;29;20458;-58
2022/06/14 02:48:50;;;;;;;7.15;4.38;;;;;;;9.93;84.83;96577.78;2008934;29;20053;-58
2022/06/14 02:49:56;;;;;;;13.50;5.50;;;;;;;9.93;84.47;96577.78;1995737;29;20076;-58
2022/06/14 02:51:16;;;;;;;7.65;4.13;;;;;;;9.91;84.91;96574.41;2010376;29;20118;-57
2022/06/14 02:52:30;;;;;;;7.50;4.25;;;;;;;9.90;85.13;96580.50;2012008;29;20061;-58
2022/06/14 02:53:45;;;;;;;10.15;4.93;;;;;;;9.89;84.71;96574.47;2010020;29;20295;-56
2022/06/14 02:54:52;;;;;;;10.77;4.85;;;;;;;9.88;85.38;96579.69;2002952;29;20526;-57
2022/06/14 02:55:57;;;;;;;11.98;4.65;;;;;;;9.89;85.19;96581.38;1995216;29;20057;-57
2022/06/14 02:57:04;;;;;;;8.27;5.15;;;;;;;9.90;85.10;96581.34;2009734;29;20045;-58
2022/06/14 02:58:08;;;;;;;7.13;4.32;;;;;;;9.88;85.06;96569.31;2009869;29;20054;-58
2022/06/14 02:59:13;;;;;;;8.88;4.60;;;;;;;9.85;84.94;96575.47;2009014;29;20049;-56
2022/06/14 03:00:18;;;;;;;7.30;4.55;;;;;;;9.85;84.24;96572.03;2002281;29;20050;-60
2022/06/14 03:01:25;;;;;;;9.60;4.65;;;;;;;9.86;84.33;96577.19;2017053;29;20049;-58
2022/06/14 03:02:31;;;;;;;11.45;5.18;;;;;;;9.82;84.52;96572.13;2009086;29;20045;-58
2022/06/14 03:03:45;;;;;;;7.15;4.38;;;;;;;9.80;84.16;96571.34;2009033;29;20050;-57
2022/06/14 03:04:53;;;;;;;9.15;4.75;;;;;;;9.80;84.64;96572.19;2024232;29;20067;-62
2022/06/14 03:06:05;;;;;;;9.98;4.70;;;;;;;9.80;84.16;96569.59;2015594;29;20053;-62
2022/06/14 03:07:16;;;;;;;16.00;5.13;;;;;;;9.80;84.58;96573.94;2003902;29;20050;-61
2022/06/14 03:08:21;;;;;;;13.13;5.28;;;;;;;9.80;84.74;96568.75;2002147;29;20061;-61
2022/06/14 03:09:24;;;;;;;10.15;4.97;;;;;;;9.78;84.29;96571.38;2001234;29;20049;-63
2022/06/14 03:10:30;;;;;;;9.68;5.03;;;;;;;9.74;84.38;96562.03;2007966;29;20480;-62
2022/06/14 03:11:40;;;;;;;8.88;4.63;;;;;;;9.79;84.08;96572.25;2008562;29;20049;-58
2022/06/14 03:13:04;;;;;;;9.35;4.70;;;;;;;9.78;84.01;96571.38;2012074;29;20045;-63
2022/06/14 03:14:25;;;;;;;8.93;4.80;;;;;;;9.75;84.04;96570.66;2014501;29;20045;-62
2022/06/14 03:15:29;;;;;;;12.77;5.00;;;;;;;9.73;84.39;96570.72;2010987;29;20057;-61
2022/06/14 03:16:34;;;;;;;9.27;4.93;;;;;;;9.71;84.22;96577.69;2016349;29;20053;-61
2022/06/14 03:18:04;;;;;;;10.73;4.80;;;;;;;9.68;84.37;96573.47;2009767;29;20052;-62
2022/06/14 03:19:14;;;;;;;9.95;4.72;;;;;;;9.68;84.64;96577.81;2016968;29;20567;-63
2022/06/14 03:20:31;;;;;;;9.05;4.78;;;;;;;9.68;84.99;96576.06;2003259;29;20050;-62
2022/06/14 03:21:38;;;;;;;9.80;5.18;;;;;;;9.70;85.06;96578.56;2010635;29;20046;-62
2022/06/14 03:22:50;;;;;;;9.07;5.03;;;;;;;9.70;84.59;96573.41;2010217;29;20056;-63
2022/06/14 03:23:59;;;;;;;9.02;5.03;;;;;;;9.68;85.10;96572.63;2005795;29;20515;-62
2022/06/14 03:25:21;;;;;;;10.02;5.30;;;;;;;9.68;85.44;96585.59;2010518;29;20057;-61
2022/06/14 03:27:02;;;;;;;7.60;4.82;;;;;;;9.70;85.72;96582.03;2013812;29;20056;-63
2022/06/14 03:28:06;;;;;;;13.70;5.85;;;;;;;9.72;86.49;96579.38;2017909;29;20056;-62
2022/06/14 03:29:13;;;;;;;12.07;6.20;;;;;;;9.74;86.64;96580.19;2003863;29;20064;-62
2022/06/14 03:30:21;;;;;;;11.13;6.05;;;;;;;9.73;87.29;96578.50;2017887;29;20064;-61
2022/06/14 03:31:29;;;;;;;11.18;5.47;;;;;;;9.72;86.89;96579.38;2010283;29;20065;-61
2022/06/14 03:33:00;;;;;;;12.85;5.78;;;;;;;9.71;87.34;96582.88;2012335;29;20049;-60
2022/06/14 03:34:08;;;;;;;10.77;5.70;;;;;;;9.71;87.48;96582.88;2007038;29;20053;-60
2022/06/14 03:35:17;;;;;;;9.65;5.22;;;;;;;9.74;87.32;96581.94;2001360;29;20045;-60
2022/06/14 03:36:18;;;;;;;9.20;6.13;;;;;;;9.75;87.43;96583.63;2011604;29;20052;-60
2022/06/14 03:37:19;;;;;;;8.57;5.53;;;;;;;9.77;87.49;96579.22;2010651;29;20052;-60
2022/06/14 03:38:42;;;;;;;13.30;5.90;;;;;;;9.78;86.76;96575.72;2010608;29;20050;-59
2022/06/14 03:39:48;;;;;;;11.32;6.20;;;;;;;9.76;86.85;96573.22;2020463;29;20055;-60
2022/06/14 03:40:51;;;;;;;8.63;5.00;;;;;;;9.79;86.66;96577.44;2010795;29;20057;-61
2022/06/14 03:41:53;;;;;;;7.53;5.18;;;;;;;9.79;86.90;96578.28;2010652;29;20081;-60
2022/06/14 03:42:54;;;;;;;13.48;5.10;;;;;;;9.79;86.34;96582.63;2010397;29;20053;-60
2022/06/14 03:43:57;;;;;;;10.40;5.05;;;;;;;9.82;86.86;96583.34;2009986;29;20496;-60
2022/06/14 03:44:58;;;;;;;12.70;5.78;;;;;;;9.83;86.85;96579.84;2018511;29;20062;-61
2022/06/14 03:46:06;;;;;;;10.80;5.53;;;;;;;9.83;86.78;96579.84;2010531;29;20437;-61
2022/06/14 03:47:17;;;;;;;11.55;5.93;;;;;;;9.84;86.51;96578.97;2012952;29;20045;-60
2022/06/14 03:48:18;;;;;;;9.70;5.25;;;;;;;9.86;86.09;96587.56;2025881;29;20294;-61
2022/06/14 03:49:21;;;;;;;10.23;5.32;;;;;;;9.89;86.45;96582.25;2010151;29;20524;-59
2022/06/14 03:50:29;;;;;;;12.68;5.43;;;;;;;9.88;86.29;96583.13;1995431;29;20061;-59
2022/06/14 03:51:58;;;;;;;11.05;5.28;;;;;;;9.91;85.70;96583.03;2004402;29;20049;-57
2022/06/14 03:53:22;;;;;;;8.80;4.85;;;;;;;9.94;86.34;96588.13;2017770;29;20045;-59
2022/06/14 03:54:44;;;;;;;10.05;5.80;;;;;;;9.97;85.76;96588.91;2020695;29;20466;-61
2022/06/14 03:55:58;;;;;;;10.70;5.40;;;;;;;9.99;85.74;96587.94;2022572;29;20041;-59
2022/06/14 03:57:26;;;;;;;7.55;5.10;;;;;;;10.04;85.23;96585.19;2012337;29;20056;-60
2022/06/14 03:58:42;;;;;;;13.55;5.22;;;;;;;10.08;85.13;96586.78;2005564;29;20052;-59
2022/06/14 04:00:06;;;;;;;9.00;5.00;;;;;;;10.15;84.62;96581.31;2006334;29;20114;-60
2022/06/14 04:01:28;;;;;;;14.55;4.95;;;;;;;10.21;84.27;96577.66;2013809;29;20049;-60
2022/06/14 04:02:57;;;;;;;7.30;4.35;;;;;;;10.26;84.31;96582.66;2018528;29;20048;-59
2022/06/14 04:04:18;;;;;;;11.13;4.28;;;;;;;10.30;84.06;96573.91;2017587;29;20045;-60
2022/06/14 04:05:26;;;;;;;13.57;5.65;;;;;;;10.33;83.78;96578.97;2010416;29;20056;-60
2022/06/14 04:06:44;;;;;;;9.82;5.07;;;;;;;10.36;83.98;96577.09;2010564;29;20046;-60
2022/06/14 04:08:07;;;;;;;11.00;5.38;;;;;;;10.40;83.36;96580.47;2010228;29;20041;-60
2022/06/14 04:09:13;;;;;;;7.35;4.97;;;;;;;10.45;83.82;96580.25;2005791;29;20054;-59
2022/06/14 04:10:26;;;;;;;9.35;5.25;;;;;;;10.47;82.83;96574.13;2003649;29;20076;-59
2022/06/14 04:11:49;;;;;;;9.70;5.57;;;;;;;10.53;82.93;96575.63;1996385;29;20423;-60
2022/06/14 04:12:56;;;;;;;6.57;4.40;;;;;;;10.61;83.16;96589.16;2004712;29;20060;-60
2022/06/14 04:14:31;;;;;;;10.35;5.10;;;;;;;10.64;82.09;96585.59;2011420;29;20045;-60
2022/06/14 04:15:50;;;;;;;8.73;4.57;;;;;;;10.65;81.52;96585.56;2018014;29;20041;-59
2022/06/14 04:16:51;;;;;;;;;;;;;;;10.70;81.68;96585.41;2018546;29;20075;-60
2022/06/14 04:19:54;;;;;;;10.15;5.28;;;;;;;10.83;81.40;96589.22;2002438;29;20068;-60
2022/06/14 04:21:00;;;;;;;9.88;4.75;;;;;;;10.89;80.69;96594.16;1995737;29;20054;-58
2022/06/14 04:22:25;;;;;;;10.38;5.22;;;;;;;10.94;80.79;96589.63;1997613;29;20054;-58
2022/06/14 04:23:36;;;;;;;7.80;4.85;;;;;;;11.00;80.88;96593.75;2010223;29;20157;-59
2022/06/14 04:24:46;;;;;;;10.88;4.97;;;;;;;11.06;79.83;96590.91;2011460;29;20415;-58
2022/06/14 04:25:50;;;;;;;10.55;4.70;;;;;;;11.09;80.62;96590.75;2016481;29;20045;-58
2022/06/14 04:27:17;;;;;;;8.18;4.55;;;;;;;11.16;80.38;96602.63;2009914;29;20046;-57
2022/06/14 04:28:25;;;;;;;11.13;4.90;;;;;;;11.22;79.56;96596.34;2002274;29;20288;-58
2022/06/14 04:29:37;;;;;;;8.55;5.00;;;;;;;11.27;78.94;96594.41;1995568;29;20057;-58
2022/06/14 04:30:57;;;;;;;10.88;4.72;;;;;;;11.36;78.87;96591.44;2005642;29;20046;-58
2022/06/14 04:32:05;;;;;;;9.27;4.85;;;;;;;11.43;79.03;96586.81;2010080;29;20052;-58
2022/06/14 04:33:12;;;;;;;9.80;4.85;;;;;;;11.48;78.84;96590.91;2009903;29;20584;-57
2022/06/14 04:34:33;;;;;;;7.72;4.18;;;;;;;11.56;77.27;96595.81;2009733;29;20049;-57
2022/06/14 04:35:51;;;;;;;11.98;4.90;;;;;;;11.63;77.14;96589.44;2004642;29;20052;-57
2022/06/14 04:36:57;;;;;;;14.82;5.30;;;;;;;11.67;76.20;96591.00;1997474;29;20055;-57
2022/06/14 04:38:12;;;;;;;10.00;4.88;;;;;;;11.70;75.79;96596.06;2003012;29;20058;-56
2022/06/14 04:39:18;;;;;;;10.02;4.60;;;;;;;11.75;74.62;96589.84;2004987;29;20057;-58
2022/06/14 04:40:25;;;;;;;8.23;5.30;;;;;;;11.78;73.29;96582.72;1994962;29;20529;-58
2022/06/14 04:41:57;;;;;;;10.65;5.07;;;;;;;11.87;73.46;96590.19;1998230;29;20058;-58
2022/06/14 04:43:03;;;;;;;11.15;4.38;;;;;;;11.97;72.03;96585.41;2018260;29;20416;-58
2022/06/14 04:44:11;;;;;;;10.02;4.47;;;;;;;12.01;72.65;96584.38;2009855;29;20053;-58
2022/06/14 04:45:35;;;;;;;7.88;4.22;;;;;;;12.08;72.32;96587.56;2003358;29;20069;-57
2022/06/14 04:46:42;;;;;;;7.72;4.55;;;;;;;12.14;71.66;96584.69;2012558;29;20049;-55
2022/06/14 04:47:45;;;;;;;10.93;4.88;;;;;;;12.20;71.34;96583.59;2014252;29;20053;-58
2022/06/14 04:48:48;;;;;;;9.32;4.15;;;;;;;12.24;71.56;96583.38;2010551;29;20045;-57
2022/06/14 04:49:55;;;;;;;8.90;4.75;;;;;;;12.27;70.69;96585.84;2017795;29;20053;-58
2022/06/14 04:51:02;;;;;;;11.90;4.90;;;;;;;12.35;70.51;96577.69;2003096;29;20197;-58
2022/06/14 04:52:10;;;;;;;10.70;4.47;;;;;;;12.42;71.27;96580.88;2003759;29;20054;-57
2022/06/14 04:53:16;;;;;;;7.90;4.63;;;;;;;12.39;70.65;96581.00;2010974;29;20057;-58
2022/06/14 04:54:22;;;;;;;8.77;5.20;;;;;;;12.40;70.98;96580.91;2018188;29;20064;-58
2022/06/14 04:55:27;;;;;;;9.50;5.00;;;;;;;12.47;71.34;96582.34;2016801;29;20461;-58
2022/06/14 04:56:33;;;;;;;8.95;4.43;;;;;;;12.54;71.00;96586.38;2009976;29;20105;-57
2022/06/14 04:57:43;;;;;;;10.80;4.93;;;;;;;12.61;70.70;96586.06;2003433;29;20054;-57
2022/06/14 04:58:51;;;;;;;9.52;4.70;;;;;;;12.65;69.92;96580.66;2012108;29;20060;-58
2022/06/14 05:00:00;;;;;;;9.20;4.45;;;;;;;12.65;69.34;96580.66;2009301;29;20057;-58
2022/06/14 05:01:05;;;;;;;8.10;4.38;;;;;;;12.63;69.10;96579.88;2003504;29;20050;-58
2022/06/14 05:02:11;;;;;;;7.90;4.40;;;;;;;12.70;69.64;96586.50;2011607;29;20045;-58
2022/06/14 05:03:33;;;;;;;11.38;4.80;;;;;;;12.70;68.68;96589.13;2017253;29;20048;-58
2022/06/14 05:04:38;;;;;;;10.20;4.47;;;;;;;12.70;67.56;96575.25;2017714;29;20045;-57
2022/06/14 05:05:47;;;;;;;10.52;4.32;;;;;;;12.80;68.04;96579.97;2009882;29;20062;-59
2022/06/14 05:06:53;;;;;;;8.57;4.45;;;;;;;12.88;67.75;96581.34;2011213;29;20045;-58
2022/06/14 05:07:54;;;;;;;10.50;4.50;;;;;;;12.90;67.50;96585.56;2009734;29;20049;-57
2022/06/14 05:09:00;;;;;;;11.93;4.65;;;;;;;12.96;67.83;96584.44;2009282;29;20041;-58
2022/06/14 05:10:08;;;;;;;10.45;4.38;;;;;;;12.96;67.26;96584.44;2024569;29;20056;-57
2022/06/14 05:11:17;;;;;;;11.63;4.88;;;;;;;12.94;66.99;96586.28;2009825;29;20071;-58
2022/06/14 05:12:24;;;;;;;8.60;4.30;;;;;;;12.98;67.16;96580.00;2011088;29;20049;-58
2022/06/14 05:13:38;;;;;;;8.50;4.00;;;;;;;12.99;66.98;96584.28;2010489;29;20049;-58
2022/06/14 05:14:44;;;;;;;7.25;4.40;;;;;;;13.02;67.73;96587.59;2017703;29;20048;-57
2022/06/14 05:16:04;;;;;;;9.10;4.60;;;;;;;13.01;67.14;96585.06;2017211;29;20096;-58
2022/06/14 05:17:13;;;;;;;9.52;4.85;;;;;;;13.00;67.08;96589.44;2025276;29;20068;-57
2022/06/14 05:18:19;;;;;;;10.32;4.63;;;;;;;13.05;67.42;96593.59;2017356;29;20045;-58
2022/06/14 05:19:23;;;;;;;8.15;4.25;;;;;;;13.04;67.50;96592.72;2010814;29;20054;-58
2022/06/14 05:20:33;;;;;;;8.02;4.40;;;;;;;13.08;67.65;96580.41;2009643;29;20050;-58
2022/06/14 05:21:59;;;;;;;9.45;4.13;;;;;;;13.05;67.54;96580.56;2003849;29;20054;-57
2022/06/14 05:23:04;;;;;;;8.00;4.30;;;;;;;13.17;67.25;96595.59;2009392;29;20049;-57
2022/06/14 05:24:05;;;;;;;10.10;4.45;;;;;;;13.29;67.16;96592.44;2009722;29;20049;-58
2022/06/14 05:25:07;;;;;;;8.98;4.30;;;;;;;13.24;66.51;96581.38;2002440;29;20046;-57
2022/06/14 05:26:19;;;;;;;12.70;4.85;;;;;;;13.28;66.32;96579.47;2002082;29;20058;-58
2022/06/14 05:27:35;;;;;;;12.13;4.75;;;;;;;13.31;67.29;96587.13;1996384;29;20054;-58
2022/06/14 05:28:38;;;;;;;7.03;4.43;;;;;;;13.32;66.34;96574.03;2009804;29;20045;-58
2022/06/14 05:29:45;;;;;;;8.68;4.30;;;;;;;13.44;66.05;96596.06;2009122;29;20041;-57
2022/06/14 05:30:49;;;;;;;10.77;4.18;;;;;;;13.35;66.91;96594.75;2002583;29;20053;-58
2022/06/14 05:31:58;;;;;;;8.20;4.43;;;;;;;13.38;66.91;96589.38;2009723;29;20049;-58